Time;durP1;ratioP1;P1;durP2;ratioP2;P2;SDS_P1;SDS_P2;PMS_P1;PMS_P2;Temp;Humidity;BMP_temperature;BMP_pressure;BME280_temperature;BME280_humidity;BME280_pressure;Samples;Min_cycle;Max_cycle;Signal;HPM_P1;HPM_P2
2022/08/12 00:44:56;;;;;;;16.83;8.07;;;;;;;20.69;58.35;101100.50;5017336;28;20129;-83
2022/08/12 00:47:23;;;;;;;12.48;8.38;;;;;;;20.65;58.79;101120.56;5018379;28;20427;-82
2022/08/12 00:49:51;;;;;;;12.98;8.10;;;;;;;20.60;59.09;101117.72;5017675;28;20076;-82
2022/08/12 00:52:19;;;;;;;15.68;8.75;;;;;;;20.56;59.10;101121.81;5017206;28;20127;-82
2022/08/12 00:54:48;;;;;;;10.90;8.63;;;;;;;20.50;59.25;101123.47;5016987;28;20112;-82
2022/08/12 00:57:18;;;;;;;11.05;8.95;;;;;;;20.46;59.31;101116.94;5016977;28;20045;-83
2022/08/12 00:59:49;;;;;;;12.75;8.10;;;;;;;20.43;59.28;101124.50;5016810;28;20111;-82
2022/08/12 01:02:28;;;;;;;10.10;8.07;;;;;;;20.35;59.49;101119.38;5016939;28;20443;-83
2022/08/12 01:20:08;;;;;;;14.43;8.52;;;;;;;20.08;59.77;101113.31;5015090;28;20074;-81
2022/08/12 01:22:59;;;;;;;13.05;8.75;;;;;;;19.86;60.54;101089.63;5076371;22;20067;-80
2022/08/12 02:42:12;;;;;;;10.15;8.80;;;;;;;18.83;67.48;101120.09;5054377;28;20064;-80
2022/08/12 02:45:44;;;;;;;15.98;9.38;;;;;;;18.89;67.82;101129.91;5042317;28;20057;-82
2022/08/12 02:55:34;;;;;;;25.60;10.50;;;;;;;18.56;68.45;101115.66;4970166;28;20043;-82
2022/08/12 02:58:08;;;;;;;16.85;10.40;;;;;;;18.67;68.73;101143.47;4980337;28;20066;-78
2022/08/12 03:01:02;;;;;;;22.95;10.70;;;;;;;18.63;68.61;101136.91;5031105;28;20055;-81
2022/08/12 03:03:31;;;;;;;24.33;10.65;;;;;;;18.49;68.68;101134.16;5060725;28;20057;-80
2022/08/12 03:06:00;;;;;;;23.95;10.32;;;;;;;18.50;68.91;101134.97;5060326;28;20094;-81
2022/08/12 03:08:30;;;;;;;20.13;10.00;;;;;;;18.46;68.80;101139.03;5061021;28;20057;-79
2022/08/12 03:11:05;;;;;;;20.23;10.50;;;;;;;18.40;69.10;101126.59;5056435;28;20056;-82
2022/08/12 03:13:38;;;;;;;17.10;10.15;;;;;;;18.35;69.13;101126.34;5044662;28;20054;-81
2022/08/12 03:16:06;;;;;;;18.38;11.00;;;;;;;18.39;68.73;101143.50;5053766;28;20048;-81
2022/08/12 03:18:35;;;;;;;19.52;10.10;;;;;;;18.42;69.22;101143.94;5065622;28;20049;-81
2022/08/12 03:21:02;;;;;;;29.35;10.68;;;;;;;18.34;69.37;101145.91;5042242;28;20080;-81
2022/08/12 03:23:30;;;;;;;18.77;9.90;;;;;;;18.31;70.10;101148.94;5056859;28;20052;-79
2022/08/12 03:26:02;;;;;;;16.48;9.60;;;;;;;18.32;70.20;101146.09;5053334;28;20065;-81
2022/08/12 03:31:15;;;;;;;14.45;9.40;;;;;;;18.23;70.72;101145.44;5050356;28;20060;-81
2022/08/12 03:33:44;;;;;;;15.75;9.85;;;;;;;18.26;70.21;101143.41;5060525;28;20072;-80
2022/08/12 03:36:19;;;;;;;12.02;10.07;;;;;;;18.23;71.03;101145.44;5060330;28;20063;-81
2022/08/12 03:39:17;;;;;;;14.15;9.45;;;;;;;18.14;71.04;101143.13;5062585;28;20059;-79
2022/08/12 03:41:54;;;;;;;10.77;9.63;;;;;;;18.10;71.24;101145.31;5061848;28;20210;-80
2022/08/12 04:00:23;;;;;;;18.98;10.27;;;;;;;17.85;72.64;101137.00;5069383;28;20056;-81
2022/08/12 04:02:57;;;;;;;21.23;10.48;;;;;;;17.88;72.33;101152.50;5064487;28;20049;-81
2022/08/12 04:05:27;;;;;;;18.15;11.02;;;;;;;17.59;72.13;101126.13;5060438;28;20082;-81
2022/08/12 04:08:01;;;;;;;14.75;10.80;;;;;;;17.76;71.90;101142.63;5049225;28;20048;-81
2022/08/12 04:13:21;;;;;;;15.03;10.33;;;;;;;17.83;71.59;101135.56;5059773;28;20057;-79
2022/08/12 04:15:51;;;;;;;23.45;11.15;;;;;;;17.57;71.47;101109.63;5052620;28;20049;-80
2022/08/12 04:18:22;;;;;;;22.13;11.02;;;;;;;17.61;71.94;101137.34;5037590;28;20057;-80
2022/08/12 04:20:55;;;;;;;17.70;10.75;;;;;;;17.69;71.50;101131.97;5037066;28;20056;-79
2022/08/12 04:23:22;;;;;;;18.00;11.43;;;;;;;17.74;71.67;101139.34;5032364;28;20076;-78
2022/08/12 04:25:49;;;;;;;24.25;11.57;;;;;;;17.73;71.74;101153.59;5038096;28;20052;-79
2022/08/12 04:28:26;;;;;;;21.05;12.00;;;;;;;17.69;71.71;101149.69;5053644;28;20071;-79
2022/08/12 04:30:56;;;;;;;44.03;17.27;;;;;;;17.68;71.69;101153.31;5050603;28;20199;-79
2022/08/12 04:33:24;;;;;;;82.25;38.92;;;;;;;17.59;71.64;101152.59;5037642;28;20053;-79
2022/08/12 04:35:51;;;;;;;80.78;41.22;;;;;;;17.61;71.56;101149.75;5043023;28;20055;-79
2022/08/12 04:38:19;;;;;;;72.82;37.70;;;;;;;17.67;71.14;101154.34;5061280;28;20312;-79
2022/08/12 04:40:48;;;;;;;56.50;31.10;;;;;;;17.68;71.00;101146.22;5059620;28;20057;-80
2022/08/12 04:43:16;;;;;;;61.67;32.67;;;;;;;17.77;70.77;101149.53;5059828;28;20075;-79
2022/08/12 04:45:45;;;;;;;66.13;33.10;;;;;;;17.79;70.81;101140.41;5058795;28;20056;-79
2022/08/12 04:48:12;;;;;;;62.40;31.55;;;;;;;17.75;71.68;101148.91;5060786;28;20419;-79
2022/08/12 04:50:39;;;;;;;64.13;33.92;;;;;;;17.80;71.45;101152.63;5057994;28;20106;-79
2022/08/12 04:53:09;;;;;;;70.47;29.10;;;;;;;17.96;70.53;101148.88;5058962;28;20483;-79
2022/08/12 04:55:37;;;;;;;66.40;28.48;;;;;;;18.04;70.04;101140.78;5056443;28;20049;-82
2022/08/12 04:58:04;;;;;;;59.63;28.38;;;;;;;18.02;70.96;101145.47;5037423;28;20057;-78
2022/08/12 05:00:32;;;;;;;58.10;24.95;;;;;;;18.17;70.51;101140.91;5039271;28;20503;-80
2022/08/12 05:03:00;;;;;;;60.45;24.88;;;;;;;18.25;70.31;101132.00;5059123;28;20076;-80
2022/08/12 05:05:29;;;;;;;74.10;30.67;;;;;;;18.32;70.88;101132.03;5056362;28;20046;-80
2022/08/12 05:07:55;;;;;;;131.13;55.28;;;;;;;18.42;70.60;101140.47;5041446;28;20510;-80
2022/08/12 05:10:23;;;;;;;561.55;261.85;;;;;;;18.45;70.59;101148.00;5040167;28;20124;-80
2022/08/12 05:12:55;;;;;;;624.47;311.15;;;;;;;18.47;70.10;101145.97;5038657;28;20084;-79
2022/08/12 05:15:22;;;;;;;573.05;269.92;;;;;;;18.52;70.03;101143.53;5038749;28;20073;-79
2022/08/12 05:17:48;;;;;;;487.90;226.40;;;;;;;18.51;69.43;101136.63;5040936;28;20057;-80
2022/08/12 05:20:19;;;;;;;431.35;209.93;;;;;;;18.56;69.49;101145.63;5039739;28;20076;-81
2022/08/12 05:22:46;;;;;;;325.33;152.75;;;;;;;18.87;68.18;101136.44;5046476;28;20053;-79
2022/08/12 05:25:16;;;;;;;255.88;118.82;;;;;;;19.31;67.50;101124.50;5057679;28;20136;-79
2022/08/12 05:30:32;;;;;;;99.18;49.53;;;;;;;19.78;66.43;101132.34;5036217;28;20096;-79
2022/08/12 05:32:59;;;;;;;66.40;31.65;;;;;;;19.80;65.92;101110.91;5056058;28;20122;-78
2022/08/12 05:35:27;;;;;;;41.80;21.55;;;;;;;20.54;64.60;101118.56;5049666;28;20423;-79
2022/08/12 05:38:54;;;;;;;34.28;17.42;;;;;;;21.99;61.18;101133.66;5034244;28;20081;-78
2022/08/12 05:40:43;;;;;;;34.45;16.02;;;;;;;23.31;56.02;101105.44;5039677;28;20045;-79
2022/08/12 05:43:10;;;;;;;29.55;15.32;;;;;;;24.42;53.21;101125.19;5039928;28;20122;-79
2022/08/12 05:45:37;;;;;;;26.77;13.25;;;;;;;24.72;52.63;101125.78;5045923;28;20113;-79
2022/08/12 05:48:05;;;;;;;23.38;12.02;;;;;;;25.75;49.76;101131.97;5061213;28;20084;-79
2022/08/12 05:50:34;;;;;;;14.52;10.65;;;;;;;26.02;48.40;101121.38;5062017;28;20105;-79
2022/08/12 05:53:01;;;;;;;19.52;11.00;;;;;;;26.28;48.78;101127.91;5061629;28;20072;-78
2022/08/12 05:55:28;;;;;;;17.38;9.50;;;;;;;26.67;47.56;101134.88;5058527;28;20183;-78
2022/08/12 05:57:55;;;;;;;15.60;9.43;;;;;;;27.00;46.61;101127.75;5047516;28;20568;-80
2022/08/12 06:00:24;;;;;;;17.73;9.63;;;;;;;26.48;45.70;101135.44;5047030;28;20448;-79
2022/08/12 06:02:52;;;;;;;18.20;9.27;;;;;;;26.89;46.37;101136.75;5044248;28;20048;-80
2022/08/12 06:05:19;;;;;;;21.25;9.48;;;;;;;27.15;45.70;101140.53;5062904;28;20049;-80
2022/08/12 06:07:48;;;;;;;18.92;8.98;;;;;;;27.47;45.73;101129.78;5062742;28;20048;-80
2022/08/12 06:10:16;;;;;;;23.13;8.80;;;;;;;27.12;44.50;101135.66;5058881;28;20050;-79
2022/08/12 06:12:48;;;;;;;17.40;8.60;;;;;;;27.67;42.72;101130.00;5055606;28;20045;-81
2022/08/12 06:15:14;;;;;;;11.85;7.88;;;;;;;26.98;44.26;101135.25;5047519;28;20077;-79
2022/08/12 06:17:41;;;;;;;17.42;9.00;;;;;;;28.28;43.05;101135.81;5056645;28;20064;-80
2022/08/12 06:20:12;;;;;;;14.98;7.97;;;;;;;28.34;42.44;101148.22;5050065;28;20140;-80
2022/08/12 06:22:43;;;;;;;14.70;7.65;;;;;;;28.88;41.25;101142.50;5041879;28;20053;-80
2022/08/12 06:25:12;;;;;;;14.23;8.15;;;;;;;28.72;41.62;101147.03;5052615;28;20131;-80
2022/08/12 06:27:43;;;;;;;12.95;7.57;;;;;;;28.50;41.15;101138.31;5054114;28;20060;-80
2022/08/12 06:30:23;;;;;;;10.77;7.85;;;;;;;28.91;41.37;101131.19;5043467;28;20049;-78
2022/08/12 06:32:52;;;;;;;11.43;7.20;;;;;;;28.42;40.22;101142.31;5035928;28;20053;-78
2022/08/12 06:35:20;;;;;;;9.88;7.00;;;;;;;27.44;41.95;101148.03;5038967;28;20049;-79
2022/08/12 06:37:49;;;;;;;13.00;6.88;;;;;;;28.96;41.10;101147.38;5042489;28;20055;-80
2022/08/12 06:42:46;;;;;;;13.25;7.43;;;;;;;29.49;40.12;101139.94;5056979;28;20430;-79
2022/08/12 06:43:04;;;;;;;10.90;6.88;;;;;;;29.67;40.54;101131.31;5059343;28;20055;-77
2022/08/12 06:45:31;;;;;;;12.45;6.88;;;;;;;28.78;40.82;101134.38;5061491;28;20053;-79
2022/08/12 06:48:05;;;;;;;12.73;7.03;;;;;;;27.88;41.24;101118.34;5046301;28;20056;-80
2022/08/12 06:50:32;;;;;;;16.00;7.43;;;;;;;27.91;42.27;101116.97;5047388;28;20053;-81
2022/08/12 06:52:59;;;;;;;15.98;8.52;;;;;;;27.78;42.94;101125.50;5047425;28;20060;-80
2022/08/12 06:55:27;;;;;;;12.35;6.78;;;;;;;29.23;40.34;101131.00;5046971;28;20060;-80
2022/08/12 06:58:03;;;;;;;15.20;6.63;;;;;;;29.28;40.11;101118.34;5048992;28;20049;-79
2022/08/12 07:00:33;;;;;;;16.92;6.63;;;;;;;30.24;38.63;101103.97;5044011;28;20045;-79
2022/08/12 07:03:01;;;;;;;22.25;8.77;;;;;;;30.58;37.68;101122.22;5062129;28;20055;-79
2022/08/12 07:05:28;;;;;;;13.95;6.80;;;;;;;30.71;37.01;101137.00;5064723;28;20113;-81
2022/08/12 07:08:12;;;;;;;12.63;6.28;;;;;;;30.66;36.98;101130.53;5069524;28;20053;-79
2022/08/12 07:10:43;;;;;;;14.60;6.15;;;;;;;31.35;37.46;101142.28;5060063;28;20053;-81
2022/08/12 07:13:10;;;;;;;11.77;6.32;;;;;;;31.93;35.60;101135.03;5049411;28;20057;-81
2022/08/12 07:15:38;;;;;;;12.00;6.15;;;;;;;31.82;35.81;101130.81;5048921;28;20068;-81
2022/08/12 07:18:10;;;;;;;10.35;5.85;;;;;;;32.13;34.44;101139.44;5057631;28;20045;-80
2022/08/12 07:20:40;;;;;;;13.85;5.90;;;;;;;32.29;35.16;101137.34;5064860;28;20423;-81
2022/08/12 07:23:09;;;;;;;9.50;5.75;;;;;;;32.07;34.58;101132.44;5117384;22;20064;-81
2022/08/12 07:25:41;;;;;;;17.33;5.90;;;;;;;32.21;34.29;101146.88;5106330;28;20102;-80
2022/08/12 07:28:12;;;;;;;10.48;5.50;;;;;;;29.97;36.47;101144.75;5107479;28;20048;-82
2022/08/12 07:30:41;;;;;;;7.82;5.07;;;;;;;31.06;35.39;101147.59;5106866;28;20079;-83
2022/08/12 07:33:09;;;;;;;12.80;5.45;;;;;;;31.04;34.53;101144.38;5090858;28;20058;-84
2022/08/12 07:35:44;;;;;;;10.85;5.65;;;;;;;31.62;34.03;101139.91;5087983;28;20048;-84
2022/08/12 07:38:23;;;;;;;8.57;5.28;;;;;;;29.43;36.48;101133.72;5086593;28;20060;-82
2022/08/12 07:40:50;;;;;;;14.10;5.20;;;;;;;29.00;36.30;101141.19;5087664;28;20048;-81
2022/08/12 07:43:18;;;;;;;9.23;5.20;;;;;;;28.50;37.87;101141.81;5087136;28;20568;-80
2022/08/12 07:45:45;;;;;;;8.75;4.90;;;;;;;28.37;37.52;101142.28;5087236;28;20621;-80
2022/08/12 07:48:12;;;;;;;9.10;4.95;;;;;;;28.40;37.57;101142.56;5086925;28;20048;-80
2022/08/12 07:50:38;;;;;;;7.70;5.07;;;;;;;28.26;38.53;101144.13;5085470;28;20094;-82
2022/08/12 07:53:05;;;;;;;7.90;5.03;;;;;;;28.65;37.68;101147.28;5086175;28;20079;-82
2022/08/12 07:55:32;;;;;;;9.15;5.20;;;;;;;28.69;37.34;101150.25;5085827;28;20044;-82
2022/08/12 07:58:01;;;;;;;12.98;5.63;;;;;;;29.39;37.36;101141.50;5086317;28;20084;-83
2022/08/12 08:00:33;;;;;;;12.25;4.88;;;;;;;29.36;36.37;101138.53;5086777;28;20063;-82
2022/08/12 08:03:00;;;;;;;6.82;4.75;;;;;;;29.07;37.17;101149.03;5084685;28;20131;-82
2022/08/12 08:05:30;;;;;;;9.02;4.78;;;;;;;30.04;36.25;101139.91;5079205;28;20044;-81
2022/08/12 08:08:01;;;;;;;10.55;5.68;;;;;;;29.82;36.11;101142.06;5078284;28;20443;-81
2022/08/12 08:10:30;;;;;;;10.95;5.28;;;;;;;29.54;36.35;101151.53;5077843;28;20049;-83
2022/08/12 08:12:57;;;;;;;11.85;4.85;;;;;;;30.79;34.65;101166.13;5078908;28;20112;-79
2022/08/12 08:15:26;;;;;;;11.63;5.70;;;;;;;29.61;36.25;101156.66;5078426;28;20084;-81
2022/08/12 08:17:58;;;;;;;7.25;4.40;;;;;;;30.93;34.82;101157.13;5079096;28;20099;-82
2022/08/12 08:20:27;;;;;;;;;;;;;;;31.13;34.02;101156.25;5078813;28;20044;-82
2022/08/12 08:22:55;;;;;;;7.32;5.05;;;;;;;30.39;35.07;101157.06;5079124;28;19925;-80
2022/08/12 08:25:22;;;;;;;7.82;4.90;;;;;;;30.78;34.38;101153.69;5079211;28;20048;-81
2022/08/12 08:27:48;;;;;;;11.07;5.38;;;;;;;30.85;34.78;101159.59;5079783;28;20067;-81
2022/08/12 08:30:16;;;;;;;10.13;4.88;;;;;;;30.40;35.86;101149.78;5079357;28;20059;-81
2022/08/12 08:32:43;;;;;;;8.20;4.72;;;;;;;30.41;34.89;101154.91;5079498;28;20083;-81
2022/08/12 08:35:11;;;;;;;11.32;4.82;;;;;;;30.98;35.07;101142.78;5081298;28;20075;-79
2022/08/12 08:37:38;;;;;;;10.13;5.10;;;;;;;30.00;35.67;101138.84;5080007;28;20182;-81
2022/08/12 08:42:46;;;;;;;19.30;7.20;;;;;;;29.04;37.08;101153.06;5079026;28;20044;-80
2022/08/12 08:45:17;;;;;;;11.57;5.30;;;;;;;30.24;35.57;101143.66;5079805;28;20048;-78
2022/08/12 08:47:50;;;;;;;13.27;5.20;;;;;;;31.52;34.59;101136.47;5079151;28;20437;-81
2022/08/12 08:50:18;;;;;;;8.85;4.43;;;;;;;31.63;33.92;101138.81;5078938;28;20048;-80
2022/08/12 08:52:47;;;;;;;9.68;4.95;;;;;;;31.74;33.42;101134.13;5078527;28;20613;-80
2022/08/12 08:55:16;;;;;;;6.75;4.50;;;;;;;30.12;35.14;101141.25;5076975;28;20079;-80
2022/08/12 08:57:45;;;;;;;11.73;5.13;;;;;;;30.74;34.59;101139.13;5078734;28;20509;-80
2022/08/12 09:00:16;;;;;;;8.63;4.93;;;;;;;30.41;35.19;101144.13;5077064;28;20144;-79
2022/08/12 09:02:43;;;;;;;9.73;5.63;;;;;;;31.23;34.30;101139.94;5077373;28;20055;-79
2022/08/12 09:05:10;;;;;;;9.38;4.63;;;;;;;31.42;33.62;101147.38;5077807;28;20114;-78
2022/08/12 09:07:49;;;;;;;11.23;4.80;;;;;;;31.30;34.35;101143.13;5076550;28;20084;-80
2022/08/12 09:10:19;;;;;;;9.75;5.10;;;;;;;31.88;33.28;101137.78;5077679;28;20080;-80
2022/08/12 09:15:31;;;;;;;7.10;4.63;;;;;;;32.24;33.22;101142.84;5078532;28;20052;-79
2022/08/12 09:17:58;;;;;;;9.73;4.70;;;;;;;31.62;33.33;101133.69;5078058;28;20044;-82
2022/08/12 09:20:26;;;;;;;9.77;4.47;;;;;;;31.60;33.84;101133.16;5084963;28;20052;-80
2022/08/12 09:22:54;;;;;;;5.97;4.20;;;;;;;31.74;32.80;101133.31;5081328;28;20048;-82
2022/08/12 09:25:23;;;;;;;4.88;4.03;;;;;;;31.34;33.10;101125.25;5088147;28;20052;-79
2022/08/12 09:27:50;;;;;;;7.43;4.45;;;;;;;31.77;31.98;101117.31;5089972;28;20055;-80
2022/08/12 09:30:17;;;;;;;8.20;4.20;;;;;;;31.83;32.56;101131.59;5090078;28;20037;-80
2022/08/12 09:32:49;;;;;;;8.65;4.35;;;;;;;30.93;33.36;101115.78;5088569;28;20075;-79
2022/08/12 09:35:16;;;;;;;;;;;;;;;31.49;32.40;101126.22;5088355;28;20052;-81
2022/08/12 09:37:43;;;;;;;8.25;4.68;;;;;;;31.89;32.44;101119.63;5086863;28;19931;-82
2022/08/12 09:40:12;;;;;;;7.47;4.15;;;;;;;32.00;32.52;101113.84;5086957;28;20052;-82
2022/08/12 09:45:23;;;;;;;9.07;4.28;;;;;;;31.39;32.88;101113.59;5084130;28;20102;-84
2022/08/12 09:47:50;;;;;;;4.22;3.83;;;;;;;31.38;32.90;101103.06;5083458;28;20074;-80
2022/08/12 09:50:18;;;;;;;9.00;4.35;;;;;;;30.76;32.81;101104.53;5081429;28;20049;-80
2022/08/12 09:52:51;;;;;;;7.28;4.50;;;;;;;30.98;32.47;101105.75;5081806;28;20053;-81
2022/08/12 09:55:19;;;;;;;9.95;4.20;;;;;;;30.50;32.73;101099.25;5080625;28;20063;-83
2022/08/12 09:57:46;;;;;;;6.40;4.38;;;;;;;30.63;32.52;101114.88;5081487;28;20110;-81
2022/08/12 10:00:14;;;;;;;15.48;4.97;;;;;;;29.96;32.63;101102.66;5081405;28;20052;-81
2022/08/12 10:02:58;;;;;;;5.45;3.97;;;;;;;30.26;32.79;101100.97;5081892;28;20044;-80
2022/08/12 10:05:25;;;;;;;4.82;3.90;;;;;;;29.98;32.82;101108.59;5080187;28;20099;-81
2022/08/12 10:07:55;;;;;;;5.15;4.13;;;;;;;29.85;32.75;101084.06;5081232;28;20056;-81
2022/08/12 10:10:23;;;;;;;7.53;4.43;;;;;;;30.77;33.34;101071.03;5080180;28;20052;-83
2022/08/12 10:15:53;;;;;;;;;;;;;;;;;;;;;
2022/08/12 10:24:39;;;;;;;5.38;4.30;;;;;;;30.34;32.82;101063.41;4998539;28;20118;-79
2022/08/12 10:30:43;;;;;;;6.85;4.13;;;;;;;30.60;31.73;101050.63;5087409;28;20125;-80
2022/08/12 10:33:14;;;;;;;7.07;4.22;;;;;;;30.96;31.95;101050.38;5086664;28;20151;-83
2022/08/12 10:35:43;;;;;;;4.80;3.92;;;;;;;30.46;32.03;101046.06;5085823;28;20048;-83
2022/08/12 10:38:14;;;;;;;9.05;4.30;;;;;;;30.77;31.80;101049.41;5085992;28;20395;-83
2022/08/12 10:47:27;;;;;;;4.88;3.90;;;;;;;30.65;30.80;101039.00;5084827;28;20049;-81
2022/08/12 10:50:08;;;;;;;6.22;4.43;;;;;;;30.59;31.16;101018.50;5084272;28;20059;-78
2022/08/12 10:52:45;;;;;;;5.90;3.97;;;;;;;30.61;31.35;101014.44;5085252;28;20247;-81
2022/08/12 10:55:30;;;;;;;8.57;4.10;;;;;;;30.96;31.29;101031.47;5085979;28;20290;-83
2022/08/12 10:57:58;;;;;;;8.00;4.03;;;;;;;30.96;30.92;101002.53;5083588;28;20088;-83
2022/08/12 11:00:33;;;;;;;4.80;4.05;;;;;;;31.10;30.95;101018.13;5085773;28;20053;-81
2022/08/12 11:03:02;;;;;;;5.68;4.45;;;;;;;30.76;30.51;101020.78;5083142;28;20048;-83
2022/08/12 11:05:40;;;;;;;6.82;4.65;;;;;;;30.37;31.08;101005.34;5083292;28;20048;-81
2022/08/12 11:08:23;;;;;;;9.82;4.15;;;;;;;30.74;30.88;101015.66;5082641;28;20062;-82
2022/08/12 11:10:57;;;;;;;12.13;4.45;;;;;;;30.54;30.42;101008.50;5082399;28;20092;-82
2022/08/12 11:13:32;;;;;;;7.00;4.30;;;;;;;30.67;29.81;100990.91;5085088;28;20057;-80
2022/08/12 11:16:12;;;;;;;6.28;4.00;;;;;;;30.75;29.56;100995.66;5083462;28;20065;-82
2022/08/12 11:18:46;;;;;;;6.10;3.95;;;;;;;31.08;29.74;100991.38;5081857;28;20063;-81
2022/08/12 11:25:19;;;;;;;5.38;3.70;;;;;;;31.05;29.37;100988.41;5054131;28;20049;-83
2022/08/12 12:26:31;;;;;;;5.47;3.80;;;;;;;31.80;29.51;100942.75;4874025;28;20049;-83
2022/08/12 12:28:58;;;;;;;6.35;3.60;;;;;;;31.88;28.38;100936.72;5098732;22;20052;-79
2022/08/12 12:31:24;;;;;;;4.63;3.90;;;;;;;31.89;28.49;100927.50;5089648;28;20114;-81
2022/08/12 12:33:51;;;;;;;5.25;3.60;;;;;;;32.13;28.73;100939.09;5082441;28;20052;-80
2022/08/12 12:36:18;;;;;;;4.45;3.60;;;;;;;31.65;28.80;100924.81;5081235;28;20078;-80
2022/08/12 12:38:46;;;;;;;6.43;3.30;;;;;;;32.29;28.44;100918.81;5069113;28;20047;-79
2022/08/12 12:41:12;;;;;;;9.18;4.00;;;;;;;32.46;28.05;100912.88;5063720;28;20187;-79
2022/08/12 12:43:39;;;;;;;6.82;3.80;;;;;;;32.10;28.13;100909.09;5062666;28;20051;-80
2022/08/12 12:46:06;;;;;;;4.35;3.60;;;;;;;31.90;28.08;100905.56;5062267;28;20045;-78
2022/08/12 12:48:32;;;;;;;7.53;3.58;;;;;;;31.92;27.70;100911.50;5060136;28;20072;-80
2022/08/12 12:51:18;;;;;;;6.53;3.75;;;;;;;32.06;28.16;100899.94;5059267;28;20063;-79
2022/08/12 12:53:48;;;;;;;7.63;3.80;;;;;;;31.90;27.18;100904.75;5059225;28;20127;-79
2022/08/12 12:56:19;;;;;;;5.82;3.72;;;;;;;31.85;26.71;100908.34;5058075;28;20049;-80
2022/08/12 12:58:48;;;;;;;7.68;3.95;;;;;;;31.87;27.49;100897.22;5058253;28;20048;-80
2022/08/12 13:01:17;;;;;;;7.15;3.72;;;;;;;31.88;27.56;100896.13;5060644;28;20049;-80
2022/08/12 13:03:44;;;;;;;7.18;3.70;;;;;;;31.34;27.36;100895.41;5062490;28;20703;-79
2022/08/12 13:06:14;;;;;;;5.82;3.83;;;;;;;31.86;27.55;100901.81;5058548;28;20538;-80
2022/08/12 13:08:42;;;;;;;4.72;3.38;;;;;;;31.92;27.18;100899.84;5059160;28;20052;-80
2022/08/12 13:11:10;;;;;;;7.43;3.80;;;;;;;32.05;27.27;100888.31;5059315;28;20588;-79
2022/08/12 13:13:37;;;;;;;5.70;3.63;;;;;;;31.46;27.51;100886.09;5062231;28;20053;-79
2022/08/12 13:16:05;;;;;;;5.75;3.85;;;;;;;31.66;27.86;100888.56;5059409;28;20052;-80
2022/08/12 13:18:35;;;;;;;7.07;3.80;;;;;;;31.96;27.69;100885.44;5058624;28;20083;-80
2022/08/12 13:21:03;;;;;;;4.72;3.40;;;;;;;31.92;27.64;100887.13;5059110;28;20439;-80
2022/08/12 13:23:30;;;;;;;5.28;3.72;;;;;;;32.06;28.34;100876.38;5058740;28;20045;-79
2022/08/12 13:26:00;;;;;;;4.93;3.80;;;;;;;31.92;27.71;100876.31;5059830;28;20045;-81
2022/08/12 13:28:32;;;;;;;5.18;3.90;;;;;;;31.97;27.45;100870.03;5059058;28;20045;-80
2022/08/12 13:30:59;;;;;;;5.90;3.65;;;;;;;31.62;27.62;100868.59;5059659;28;20056;-79
2022/08/12 13:33:28;;;;;;;3.88;3.50;;;;;;;32.03;28.29;100871.56;5060009;28;20099;-80
2022/08/12 13:35:59;;;;;;;6.05;3.67;;;;;;;31.98;27.95;100869.72;5058396;28;20073;-79
2022/08/12 13:38:34;;;;;;;6.75;3.50;;;;;;;32.17;27.61;100866.19;5060536;28;20107;-80
2022/08/12 13:41:01;;;;;;;4.55;3.70;;;;;;;32.14;27.20;100853.25;5061483;28;20080;-79
2022/08/12 13:43:28;;;;;;;5.55;3.75;;;;;;;32.00;27.52;100856.72;5060094;28;20071;-79
2022/08/12 13:45:56;;;;;;;6.97;3.83;;;;;;;32.22;27.21;100848.00;5057841;28;20091;-80
2022/08/12 13:48:23;;;;;;;4.35;3.63;;;;;;;32.40;27.29;100849.06;5056632;28;20119;-79
2022/08/12 13:50:50;;;;;;;4.85;3.58;;;;;;;32.52;27.38;100862.16;5057805;28;20398;-78
2022/08/12 13:53:18;;;;;;;4.20;3.45;;;;;;;32.67;27.35;100842.91;5057778;28;20081;-80
2022/08/12 13:55:48;;;;;;;4.97;3.42;;;;;;;32.59;26.95;100844.41;5057294;28;20048;-79
2022/08/12 13:58:16;;;;;;;3.97;3.40;;;;;;;32.28;26.87;100840.59;5056006;28;20053;-78
2022/08/12 14:00:45;;;;;;;4.47;3.60;;;;;;;32.39;27.12;100847.44;5057045;28;20080;-79
2022/08/12 14:03:14;;;;;;;6.22;3.60;;;;;;;32.46;27.09;100844.38;5057741;28;20063;-79
2022/08/12 14:05:41;;;;;;;3.90;3.50;;;;;;;32.19;26.66;100845.03;5082630;28;20080;-80
2022/08/12 14:08:10;;;;;;;4.28;3.22;;;;;;;32.28;26.75;100837.88;5084700;28;20048;-80
2022/08/12 14:10:45;;;;;;;6.40;3.40;;;;;;;32.27;26.69;100833.56;5084245;28;20076;-80
2022/08/12 14:13:15;;;;;;;5.13;3.55;;;;;;;32.48;27.41;100829.44;5086050;28;20052;-81
2022/08/12 14:15:47;;;;;;;7.80;3.47;;;;;;;32.52;26.92;100835.06;5087285;28;20044;-80
2022/08/12 14:18:16;;;;;;;4.82;3.58;;;;;;;32.13;26.26;100822.69;5082142;28;20055;-80
2022/08/12 14:20:45;;;;;;;3.78;3.30;;;;;;;32.21;26.39;100818.47;5080553;28;20063;-79
2022/08/12 14:23:14;;;;;;;4.80;3.38;;;;;;;32.32;26.93;100819.94;5080464;28;20079;-78
2022/08/12 14:25:42;;;;;;;5.38;3.30;;;;;;;31.86;26.17;100812.53;5084592;28;20307;-79
2022/08/12 14:28:11;;;;;;;7.13;3.65;;;;;;;32.14;26.86;100807.25;5086206;28;20056;-80
2022/08/12 14:30:50;;;;;;;8.02;3.67;;;;;;;32.15;27.16;100825.06;5085950;28;20075;-80
2022/08/12 14:33:18;;;;;;;6.45;3.63;;;;;;;32.19;26.83;100816.06;5085542;28;20060;-79
2022/08/12 14:35:45;;;;;;;4.07;3.67;;;;;;;31.85;26.65;100826.34;5081710;28;20076;-79
2022/08/12 14:38:14;;;;;;;8.65;3.97;;;;;;;31.74;26.79;100822.19;5078804;28;20118;-79
2022/08/12 14:40:42;;;;;;;7.10;3.60;;;;;;;31.98;26.75;100807.47;5077129;28;20483;-78
2022/08/12 14:43:08;;;;;;;5.82;3.70;;;;;;;32.01;26.42;100814.22;5076042;28;20099;-78
2022/08/12 14:45:36;;;;;;;4.28;3.53;;;;;;;32.12;28.04;100801.31;5076978;28;20149;-79
2022/08/12 14:48:03;;;;;;;5.57;3.42;;;;;;;32.21;26.96;100807.63;5077521;28;20056;-78
2022/08/12 14:50:31;;;;;;;5.40;3.50;;;;;;;32.34;26.61;100806.91;5078484;28;20418;-78
2022/08/12 14:52:59;;;;;;;5.80;3.70;;;;;;;32.15;26.79;100787.16;5078334;28;20076;-77
2022/08/12 14:55:29;;;;;;;5.00;3.70;;;;;;;32.17;27.18;100798.50;5075780;28;20478;-78
2022/08/12 14:57:57;;;;;;;6.05;3.63;;;;;;;31.84;27.08;100803.91;5076256;28;20051;-78
2022/08/12 15:03:09;;;;;;;8.40;3.45;;;;;;;31.75;27.33;100800.25;5078513;28;20058;-79
2022/08/12 15:05:37;;;;;;;8.05;3.70;;;;;;;31.94;26.85;100787.50;5076699;28;20040;-79
2022/08/12 15:08:10;;;;;;;6.68;3.70;;;;;;;31.81;27.78;100782.84;5076803;28;20127;-78
2022/08/12 15:10:38;;;;;;;4.95;3.92;;;;;;;31.87;27.62;100776.25;5078060;28;20056;-79
2022/08/12 15:13:05;;;;;;;6.75;3.97;;;;;;;32.01;27.57;100781.72;5076211;28;20052;-78
2022/08/12 15:15:32;;;;;;;4.05;3.47;;;;;;;31.95;27.62;100788.31;5076581;28;20450;-78
2022/08/12 15:18:00;;;;;;;5.13;3.90;;;;;;;32.17;28.05;100779.56;5077052;28;20080;-77
2022/08/12 15:20:27;;;;;;;6.00;3.55;;;;;;;32.28;27.37;100781.03;5077906;28;20048;-78
2022/08/12 15:22:58;;;;;;;6.97;3.40;;;;;;;32.11;27.73;100797.00;5077146;28;20098;-78
2022/08/12 15:25:25;;;;;;;6.32;3.75;;;;;;;31.82;27.35;100784.44;5079193;28;20052;-79
2022/08/12 15:27:52;;;;;;;4.80;3.70;;;;;;;31.78;27.97;100771.78;5080245;28;20048;-81
2022/08/12 15:30:19;;;;;;;7.68;4.63;;;;;;;32.14;27.68;100774.75;5079231;28;20055;-79
2022/08/12 15:32:46;;;;;;;6.53;3.95;;;;;;;31.93;27.94;100774.28;5077008;28;20049;-79
2022/08/12 15:35:16;;;;;;;4.10;3.65;;;;;;;31.80;27.93;100765.00;5074827;28;20048;-79
2022/08/12 15:37:56;;;;;;;4.10;3.70;;;;;;;31.72;27.73;100765.66;5075788;28;20525;-78
2022/08/12 15:40:27;;;;;;;6.20;3.67;;;;;;;31.79;27.95;100757.97;5074073;28;20051;-78
2022/08/12 15:42:55;;;;;;;6.32;4.32;;;;;;;31.90;28.21;100780.28;5075030;28;20056;-78
2022/08/12 15:45:22;;;;;;;7.45;6.68;;;;;;;31.82;27.84;100762.00;5064652;28;20072;-79
2022/08/12 15:47:53;;;;;;;4.88;4.00;;;;;;;31.87;28.45;100760.00;5060905;28;20052;-79
2022/08/12 15:50:21;;;;;;;7.57;3.97;;;;;;;31.86;28.23;100758.41;5073511;28;20067;-77
2022/08/12 15:52:48;;;;;;;11.57;4.00;;;;;;;31.70;28.47;100748.91;5074328;28;20048;-79
2022/08/12 15:55:17;;;;;;;6.43;4.72;;;;;;;31.87;28.15;100762.72;5071699;28;20072;-79